Time;durP1;ratioP1;P1;durP2;ratioP2;P2;SDS_P1;SDS_P2;PMS_P1;PMS_P2;Temp;Humidity;BMP_temperature;BMP_pressure;BME280_temperature;BME280_humidity;BME280_pressure;Samples;Min_cycle;Max_cycle;Signal;HPM_P1;HPM_P2
2023/02/13 08:37:00;;;;;;;27.80;11.18;;;;;;;9.85;57.96;98441.97;2086712;28;20568;-58
2023/02/13 08:38:03;;;;;;;18.85;9.38;;;;;;;11.15;55.13;98424.31;2079627;28;20810;-58
2023/02/13 08:39:05;;;;;;;17.55;10.07;;;;;;;10.41;55.63;98433.41;2070877;28;20312;-59
2023/02/13 08:40:09;;;;;;;18.73;9.55;;;;;;;8.91;58.93;98433.50;2072960;28;20212;-59
2023/02/13 08:41:10;;;;;;;18.95;10.52;;;;;;;10.05;57.37;98440.88;2073451;28;20284;-58
2023/02/13 08:42:12;;;;;;;23.85;11.75;;;;;;;10.16;56.89;98431.13;2071735;28;20293;-58
2023/02/13 08:43:16;;;;;;;22.50;12.35;;;;;;;9.77;57.40;98443.84;2073662;28;20226;-59
2023/02/13 08:44:18;;;;;;;24.58;10.25;;;;;;;9.43;57.97;98439.03;2074174;28;20685;-58
2023/02/13 08:45:19;;;;;;;21.70;9.82;;;;;;;11.22;54.17;98431.16;2074481;28;20201;-59
2023/02/13 08:46:21;;;;;;;18.67;11.05;;;;;;;11.31;53.73;98437.09;2074758;28;20225;-58
2023/02/13 08:47:22;;;;;;;21.92;10.80;;;;;;;11.84;51.61;98434.28;2075119;28;20201;-59
2023/02/13 08:48:25;;;;;;;19.73;11.30;;;;;;;10.26;54.95;98432.72;2070234;28;20713;-58
2023/02/13 08:49:26;;;;;;;28.50;11.30;;;;;;;10.59;55.09;98432.28;2072517;28;20240;-58
2023/02/13 08:50:28;;;;;;;22.23;11.45;;;;;;;9.36;57.39;98427.81;2074167;28;20205;-60
2023/02/13 08:51:29;;;;;;;18.55;11.60;;;;;;;10.78;54.90;98424.97;2071681;28;20198;-60
2023/02/13 08:52:31;;;;;;;16.42;9.98;;;;;;;9.62;56.35;98424.03;2072227;28;20820;-60
2023/02/13 08:53:33;;;;;;;18.83;10.88;;;;;;;9.78;56.52;98429.91;2072335;28;20304;-60
2023/02/13 08:54:35;;;;;;;21.25;10.45;;;;;;;9.97;55.50;98417.50;2075121;28;20197;-60
2023/02/13 08:55:36;;;;;;;16.58;9.80;;;;;;;10.77;55.30;98423.25;2074003;28;20208;-60
2023/02/13 08:56:38;;;;;;;16.35;9.43;;;;;;;11.36;53.71;98415.19;2075647;28;20216;-60
2023/02/13 08:57:39;;;;;;;29.23;10.93;;;;;;;10.12;54.80;98396.38;2072227;28;20293;-60
2023/02/13 08:58:41;;;;;;;20.88;9.50;;;;;;;10.73;54.78;98418.97;2072469;28;20201;-61
2023/02/13 08:59:42;;;;;;;19.52;10.23;;;;;;;11.13;53.87;98422.63;2074622;28;20557;-60
2023/02/13 09:00:44;;;;;;;22.50;11.00;;;;;;;11.72;51.76;98425.81;2074621;28;20229;-60
2023/02/13 09:01:45;;;;;;;23.08;10.98;;;;;;;10.44;54.32;98423.78;2073803;28;20202;-60
2023/02/13 09:02:47;;;;;;;17.67;10.38;;;;;;;10.39;55.07;98433.44;2073337;28;20197;-60
2023/02/13 09:03:49;;;;;;;19.15;10.68;;;;;;;10.27;55.52;98421.41;2074522;28;20355;-60
2023/02/13 09:04:50;;;;;;;19.33;10.27;;;;;;;11.31;53.46;98426.63;2075007;28;20205;-60
2023/02/13 09:05:52;;;;;;;18.25;11.40;;;;;;;10.72;53.54;98427.69;2075374;28;20291;-60
2023/02/13 09:06:54;;;;;;;21.02;9.68;;;;;;;10.71;54.78;98405.06;2074026;28;20193;-60
2023/02/13 09:08:01;;;;;;;25.02;11.18;;;;;;;10.73;54.85;98418.97;2074123;28;20228;-60
2023/02/13 09:09:05;;;;;;;17.98;10.20;;;;;;;10.61;54.62;98433.09;2072688;28;20631;-61
2023/02/13 09:10:07;;;;;;;18.88;9.68;;;;;;;11.01;54.04;98418.47;2073625;28;20235;-60
2023/02/13 09:11:09;;;;;;;18.05;9.63;;;;;;;9.99;55.92;98427.91;2082067;28;20216;-60
2023/02/13 09:12:12;;;;;;;19.42;9.68;;;;;;;10.03;56.45;98427.84;2073709;28;20668;-60
2023/02/13 09:13:13;;;;;;;17.15;9.60;;;;;;;10.29;55.45;98424.84;2072391;28;20257;-60
2023/02/13 09:14:15;;;;;;;20.08;11.18;;;;;;;11.54;53.64;98426.16;2075243;28;20201;-60
2023/02/13 09:15:16;;;;;;;22.10;9.57;;;;;;;12.04;51.93;98426.91;2075917;28;20745;-60
2023/02/13 09:16:18;;;;;;;20.30;10.65;;;;;;;12.84;50.05;98424.13;2073653;28;20201;-60
2023/02/13 09:17:19;;;;;;;23.30;10.07;;;;;;;11.60;52.66;98423.44;2073113;28;20344;-60
2023/02/13 09:18:21;;;;;;;23.60;11.27;;;;;;;12.01;51.74;98410.38;2069493;28;20736;-60
2023/02/13 09:19:22;;;;;;;17.38;9.70;;;;;;;10.44;54.63;98430.75;2070931;28;20208;-60
2023/02/13 09:20:25;;;;;;;19.13;10.40;;;;;;;10.21;55.50;98395.38;2071587;28;20220;-60
2023/02/13 09:21:26;;;;;;;14.55;9.52;;;;;;;10.72;54.88;98425.09;2075635;28;20225;-60
2023/02/13 09:22:28;;;;;;;26.02;10.32;;;;;;;11.55;53.26;98430.53;2071928;28;20202;-60
2023/02/13 09:23:32;;;;;;;18.98;9.65;;;;;;;11.40;53.08;98427.31;2071266;28;20269;-60
2023/02/13 09:24:33;;;;;;;22.13;9.35;;;;;;;11.46;52.97;98431.56;2073191;28;20813;-60
2023/02/13 09:25:35;;;;;;;21.40;9.90;;;;;;;12.17;51.66;98431.88;2071868;28;20213;-60
2023/02/13 09:26:36;;;;;;;17.13;10.38;;;;;;;11.25;53.33;98410.19;2073708;28;20201;-60
2023/02/13 09:27:38;;;;;;;19.30;9.65;;;;;;;10.48;54.51;98436.81;2074147;28;20208;-60
2023/02/13 09:28:40;;;;;;;17.95;9.63;;;;;;;10.87;55.30;98429.16;2068854;28;20225;-60
2023/02/13 09:29:42;;;;;;;19.40;10.13;;;;;;;11.06;54.79;98424.50;2075502;28;20268;-61
2023/02/13 09:30:43;;;;;;;15.13;9.32;;;;;;;12.45;51.27;98432.06;2073578;28;20644;-60
2023/02/13 09:31:45;;;;;;;17.13;10.40;;;;;;;13.19;50.01;98429.34;2071822;28;20199;-60
2023/02/13 09:32:47;;;;;;;16.75;9.43;;;;;;;11.79;51.20;98431.75;2069973;28;20202;-61
2023/02/13 09:33:49;;;;;;;16.77;9.68;;;;;;;11.37;53.39;98429.13;2072434;28;20197;-60
2023/02/13 09:34:50;;;;;;;16.65;9.20;;;;;;;11.20;53.54;98427.69;2073437;28;20649;-60
2023/02/13 09:35:52;;;;;;;15.80;9.23;;;;;;;10.79;54.48;98418.84;2073670;28;20202;-60
2023/02/13 09:36:53;;;;;;;15.98;10.05;;;;;;;10.58;55.76;98433.16;2071335;28;20333;-60
2023/02/13 09:37:55;;;;;;;16.67;9.52;;;;;;;11.11;54.97;98428.72;2071268;28;20190;-60
2023/02/13 09:38:56;;;;;;;17.88;9.63;;;;;;;11.23;53.03;98432.00;2070364;28;20205;-60
2023/02/13 09:39:58;;;;;;;16.88;9.57;;;;;;;10.90;55.05;98424.75;2070481;28;20213;-60
2023/02/13 09:41:10;;;;;;;19.02;9.45;;;;;;;12.44;51.98;98432.13;2072652;28;20194;-61
2023/02/13 09:42:19;;;;;;;13.48;8.45;;;;;;;11.36;52.98;98424.78;2073944;28;20205;-60
2023/02/13 09:43:29;;;;;;;18.17;9.40;;;;;;;11.88;52.16;98435.94;2073075;28;20245;-60
2023/02/13 09:44:40;;;;;;;15.70;9.05;;;;;;;11.01;54.02;98436.75;2072601;28;20198;-60
2023/02/13 09:45:46;;;;;;;18.13;9.52;;;;;;;10.19;56.48;98435.44;2074626;28;20223;-60
2023/02/13 09:46:47;;;;;;;19.48;9.65;;;;;;;10.41;55.36;98418.59;2072421;28;20256;-60
2023/02/13 09:47:49;;;;;;;14.07;8.70;;;;;;;10.88;55.34;98431.78;2067702;28;20252;-60
2023/02/13 09:48:54;;;;;;;15.73;8.40;;;;;;;11.87;53.58;98439.44;2068871;28;20208;-60
2023/02/13 09:50:02;;;;;;;17.27;8.98;;;;;;;12.13;52.51;98431.06;2069068;28;20327;-60
2023/02/13 09:51:04;;;;;;;15.70;8.32;;;;;;;12.34;51.87;98434.97;2068001;28;20547;-60
2023/02/13 09:52:07;;;;;;;16.10;9.57;;;;;;;12.34;51.58;98432.34;2068121;28;20191;-60
2023/02/13 09:53:19;;;;;;;17.10;9.48;;;;;;;12.44;50.83;98435.59;2067469;28;20731;-60
2023/02/13 09:54:20;;;;;;;17.60;9.88;;;;;;;12.41;51.39;98436.50;2068966;28;20271;-60
2023/02/13 09:55:29;;;;;;;17.52;8.88;;;;;;;12.67;50.22;98427.19;2067734;28;20202;-60
2023/02/13 09:56:48;;;;;;;18.42;9.35;;;;;;;12.25;50.78;98441.28;2069308;28;20254;-60
2023/02/13 09:58:07;;;;;;;13.50;8.35;;;;;;;11.63;51.92;98441.72;2068509;28;20198;-60
2023/02/13 09:59:37;;;;;;;16.27;9.35;;;;;;;11.17;53.44;98439.97;2069125;28;20214;-60
2023/02/13 10:00:42;;;;;;;16.65;8.85;;;;;;;11.65;52.64;98428.59;2064491;28;20321;-60
2023/02/13 10:01:48;;;;;;;18.58;9.85;;;;;;;11.53;53.19;98441.03;2068266;28;20531;-60
2023/02/13 10:02:57;;;;;;;16.20;9.30;;;;;;;12.67;51.05;98445.53;2066630;28;20206;-60
2023/02/13 10:04:10;;;;;;;15.07;8.48;;;;;;;12.48;50.11;98447.75;2066242;28;20199;-60
2023/02/13 10:05:46;;;;;;;15.65;8.95;;;;;;;12.55;50.82;98449.28;2069242;28;20670;-60
2023/02/13 10:07:12;;;;;;;17.85;8.68;;;;;;;11.52;52.53;98449.75;2070061;28;20202;-60
2023/02/13 10:08:37;;;;;;;13.60;8.20;;;;;;;11.55;53.30;98447.09;2068365;28;20246;-60
2023/02/13 10:10:10;;;;;;;16.73;9.82;;;;;;;12.02;52.01;98452.25;2066724;28;20652;-60
2023/02/13 10:12:02;;;;;;;16.42;9.27;;;;;;;11.64;52.82;98447.78;2067680;28;20236;-60
2023/02/13 10:13:09;;;;;;;17.60;10.15;;;;;;;10.70;54.43;98446.00;2059915;28;20223;-60
2023/02/13 10:14:48;;;;;;;15.32;9.32;;;;;;;9.66;57.44;98441.34;2065802;28;20198;-60
2023/02/13 10:16:22;;;;;;;15.52;8.95;;;;;;;9.92;57.08;98455.84;2067807;28;20198;-60
2023/02/13 10:17:32;;;;;;;17.40;10.13;;;;;;;10.06;56.42;98458.25;2067969;28;20237;-60
2023/02/13 10:18:43;;;;;;;13.45;7.75;;;;;;;9.42;57.88;98447.72;2067212;28;20294;-60
2023/02/13 10:20:00;;;;;;;17.23;10.10;;;;;;;10.69;55.45;98439.06;2067514;28;20388;-60
2023/02/13 10:21:04;;;;;;;14.48;8.45;;;;;;;9.86;57.16;98442.88;2068457;28;20204;-60
2023/02/13 10:22:24;;;;;;;15.95;8.80;;;;;;;9.68;57.79;98454.41;2068596;28;20206;-60
2023/02/13 10:23:33;;;;;;;16.15;9.02;;;;;;;9.98;56.46;98455.75;2066532;28;20237;-60
2023/02/13 10:24:40;;;;;;;15.07;9.38;;;;;;;10.05;56.04;98459.13;2067308;28;20647;-60
2023/02/13 10:25:48;;;;;;;17.60;9.60;;;;;;;10.75;54.79;98451.16;2064766;28;20202;-60
2023/02/13 10:26:49;;;;;;;16.42;8.00;;;;;;;10.36;54.79;98440.44;2066404;28;20198;-60
2023/02/13 10:27:56;;;;;;;12.85;7.95;;;;;;;10.45;55.00;98445.53;2065648;28;20201;-60
2023/02/13 10:30:31;;;;;;;13.75;8.60;;;;;;;12.17;52.10;98448.41;2068630;28;20210;-60
2023/02/13 10:31:33;;;;;;;14.95;8.10;;;;;;;12.43;51.06;98443.50;2068590;28;20205;-60
2023/02/13 10:32:45;;;;;;;15.02;8.50;;;;;;;11.65;52.26;98442.50;2068720;28;20234;-60
2023/02/13 10:33:55;;;;;;;13.05;7.80;;;;;;;12.23;50.91;98444.81;2067171;28;20197;-60
2023/02/13 10:35:00;;;;;;;12.98;7.95;;;;;;;11.91;51.31;98447.22;2067984;28;20226;-60
2023/02/13 10:36:26;;;;;;;15.52;8.05;;;;;;;11.79;51.39;98446.63;2068590;28;20209;-60
2023/02/13 10:37:28;;;;;;;15.60;7.80;;;;;;;12.64;50.58;98449.97;2067455;28;20225;-60
2023/02/13 10:38:33;;;;;;;11.98;7.28;;;;;;;13.17;48.68;98450.38;2067528;28;20234;-60
2023/02/13 10:39:34;;;;;;;12.70;7.82;;;;;;;14.42;47.00;98445.09;2068986;28;20205;-60
2023/02/13 10:40:39;;;;;;;13.13;7.85;;;;;;;14.66;46.13;98443.47;2067878;28;20202;-60
2023/02/13 10:41:56;;;;;;;11.68;7.65;;;;;;;12.15;50.37;98437.13;2067946;28;20201;-60
2023/02/13 10:43:08;;;;;;;11.45;7.25;;;;;;;13.02;49.14;98449.00;2071582;28;20204;-60
2023/02/13 10:44:12;;;;;;;13.45;7.03;;;;;;;15.12;45.34;98441.06;2071195;28;20198;-60
2023/02/13 10:45:26;;;;;;;12.75;7.25;;;;;;;13.96;46.06;98452.63;2069370;28;20193;-60
2023/02/13 10:46:38;;;;;;;13.18;8.73;;;;;;;12.14;50.41;98445.88;2064545;28;20210;-59
2023/02/13 10:48:05;;;;;;;15.98;8.10;;;;;;;12.60;50.17;98448.34;2065785;28;20205;-59
2023/02/13 10:49:20;;;;;;;13.90;7.38;;;;;;;12.73;49.55;98449.75;2063228;28;20232;-59
2023/02/13 10:50:35;;;;;;;16.77;8.10;;;;;;;12.66;49.60;98448.16;2067283;28;20198;-59
2023/02/13 10:52:09;;;;;;;13.75;7.95;;;;;;;13.16;48.34;98446.03;2068584;28;20219;-59
2023/02/13 10:53:30;;;;;;;24.10;8.55;;;;;;;13.73;47.43;98437.53;2062471;28;20649;-59
2023/02/13 10:54:31;;;;;;;15.25;7.90;;;;;;;14.58;45.40;98413.91;2064030;28;20198;-59
2023/02/13 10:56:07;;;;;;;17.27;6.90;;;;;;;14.92;45.42;98434.72;2064449;28;20229;-59
2023/02/13 10:57:36;;;;;;;14.30;8.30;;;;;;;14.65;45.39;98441.75;2067210;28;20281;-59
2023/02/13 10:58:52;;;;;;;12.20;7.15;;;;;;;15.34;44.74;98439.38;2068119;28;20238;-59
2023/02/13 11:00:10;;;;;;;16.38;8.40;;;;;;;14.69;44.37;98427.59;2067516;28;20249;-59
2023/02/13 11:01:17;;;;;;;15.95;8.60;;;;;;;13.19;47.48;98442.47;2064239;28;20190;-59
2023/02/13 11:02:31;;;;;;;12.50;8.07;;;;;;;11.91;49.99;98433.28;2065690;28;20210;-59
2023/02/13 11:03:32;;;;;;;13.85;7.20;;;;;;;11.53;51.05;98425.31;2067966;28;20221;-59
2023/02/13 11:04:34;;;;;;;13.73;8.82;;;;;;;13.13;49.01;98446.13;2066188;28;20630;-59
2023/02/13 11:05:38;;;;;;;12.68;8.35;;;;;;;13.14;47.98;98439.97;2065085;28;20729;-59
2023/02/13 11:06:45;;;;;;;13.55;8.63;;;;;;;13.16;48.17;98440.78;2068361;28;20232;-59
2023/02/13 11:07:47;;;;;;;15.45;8.35;;;;;;;13.12;47.90;98440.91;2075596;28;20196;-59
2023/02/13 11:08:49;;;;;;;14.43;8.40;;;;;;;12.92;48.43;98423.94;2075771;28;20224;-59
2023/02/13 11:09:54;;;;;;;13.20;8.68;;;;;;;12.01;49.88;98426.97;2068476;28;20281;-58
2023/02/13 11:10:55;;;;;;;14.57;7.90;;;;;;;11.93;50.86;98429.72;2066356;28;20202;-59
2023/02/13 11:11:57;;;;;;;14.32;8.13;;;;;;;11.14;52.53;98432.19;2067823;28;20269;-59
2023/02/13 11:13:15;;;;;;;15.90;8.85;;;;;;;12.32;50.52;98433.28;2063612;28;20214;-58
2023/02/13 11:14:20;;;;;;;16.48;8.18;;;;;;;12.87;48.96;98429.31;2066819;28;20199;-59
2023/02/13 11:15:31;;;;;;;12.23;7.57;;;;;;;12.61;48.92;98427.34;2067437;28;20205;-59
2023/02/13 11:16:41;;;;;;;15.38;8.85;;;;;;;12.32;49.46;98431.50;2066753;28;20202;-59
2023/02/13 11:17:45;;;;;;;16.85;9.10;;;;;;;13.12;48.19;98433.06;2066374;28;20586;-58
2023/02/13 11:18:49;;;;;;;16.90;8.45;;;;;;;13.13;47.95;98424.25;2065225;28;20209;-59
2023/02/13 11:20:07;;;;;;;14.13;8.15;;;;;;;12.66;48.91;98407.13;2067264;28;20198;-59
2023/02/13 11:21:14;;;;;;;13.45;7.60;;;;;;;13.84;47.11;98427.56;2066392;28;20202;-59
2023/02/13 11:22:41;;;;;;;13.07;7.97;;;;;;;13.62;46.75;98429.97;2065235;28;20234;-59
2023/02/13 11:23:51;;;;;;;13.23;7.78;;;;;;;13.09;47.62;98423.50;2063873;28;20237;-59
2023/02/13 11:24:57;;;;;;;15.27;7.68;;;;;;;13.01;48.58;98423.69;2065448;28;20225;-59
2023/02/13 11:26:01;;;;;;;14.73;8.27;;;;;;;11.84;50.03;98410.75;2064366;28;20696;-58
2023/02/13 11:27:12;;;;;;;13.40;8.35;;;;;;;11.34;52.05;98414.38;2065324;28;20609;-59
2023/02/13 11:28:19;;;;;;;17.00;8.63;;;;;;;10.91;52.35;98404.72;2066370;28;20233;-58
2023/02/13 11:29:25;;;;;;;12.15;7.85;;;;;;;10.67;53.86;98409.47;2064105;28;20286;-58
2023/02/13 11:30:35;;;;;;;15.10;8.68;;;;;;;11.51;51.60;98416.63;2066490;28;20200;-58
2023/02/13 11:31:37;;;;;;;16.65;9.40;;;;;;;10.56;53.26;98411.41;2068172;28;20197;-58
2023/02/13 11:32:38;;;;;;;14.05;8.35;;;;;;;11.09;52.72;98417.44;2066541;28;20785;-59
2023/02/13 11:33:40;;;;;;;17.05;7.68;;;;;;;11.59;51.61;98413.84;2066881;28;20237;-58
2023/02/13 11:34:42;;;;;;;14.25;9.30;;;;;;;11.63;52.32;98406.81;2068962;28;20241;-58
2023/02/13 11:35:45;;;;;;;12.55;7.78;;;;;;;13.00;49.08;98413.22;2066627;28;20229;-58
2023/02/13 11:37:06;;;;;;;15.07;8.55;;;;;;;13.13;48.17;98405.91;2066419;28;20234;-59
2023/02/13 11:38:12;;;;;;;16.92;9.32;;;;;;;12.39;49.79;98413.88;2073909;28;20258;-59
2023/02/13 11:39:22;;;;;;;14.38;8.63;;;;;;;12.61;49.81;98406.38;2071456;28;20572;-58
2023/02/13 11:40:31;;;;;;;14.27;8.07;;;;;;;13.43;48.50;98371.88;2077330;28;20285;-59
2023/02/13 11:41:41;;;;;;;13.98;8.30;;;;;;;13.65;47.30;98414.97;2072172;28;20593;-58
2023/02/13 11:42:43;;;;;;;14.70;8.25;;;;;;;13.52;47.26;98411.84;2066323;28;20206;-58
2023/02/13 11:43:47;;;;;;;14.57;8.18;;;;;;;13.77;47.16;98412.91;2074796;28;20209;-58
2023/02/13 11:44:52;;;;;;;14.15;8.65;;;;;;;14.39;45.91;98411.88;2074078;28;20194;-58
2023/02/13 11:46:03;;;;;;;12.02;7.47;;;;;;;14.30;45.59;98414.81;2066049;28;20198;-59
2023/02/13 11:47:04;;;;;;;12.80;7.68;;;;;;;14.15;46.20;98409.09;2071929;28;20208;-59
2023/02/13 11:48:20;;;;;;;13.20;7.22;;;;;;;13.95;46.49;98409.72;2068876;28;20794;-58
2023/02/13 11:49:25;;;;;;;13.02;8.00;;;;;;;13.41;47.55;98415.66;2067383;28;20206;-59
2023/02/13 11:50:33;;;;;;;13.40;7.40;;;;;;;13.78;46.59;98420.72;2065877;28;20202;-58
2023/02/13 11:51:55;;;;;;;13.35;8.43;;;;;;;14.12;46.37;98413.59;2067624;28;20374;-58
2023/02/13 11:53:00;;;;;;;13.40;8.15;;;;;;;14.18;46.00;98413.41;2067780;28;20597;-59
2023/02/13 11:54:03;;;;;;;10.85;7.47;;;;;;;14.39;46.08;98400.50;2067277;28;20196;-59
2023/02/13 11:55:24;;;;;;;15.98;8.05;;;;;;;14.15;45.69;98409.09;2065326;28;20575;-59
2023/02/13 11:56:26;;;;;;;13.93;8.32;;;;;;;14.25;46.39;98409.69;2075237;28;20721;-59
2023/02/13 11:57:31;;;;;;;13.68;8.30;;;;;;;14.60;45.87;98414.72;2075960;28;20691;-59
2023/02/13 11:58:33;;;;;;;13.35;7.88;;;;;;;14.89;45.27;98405.88;2066670;28;20729;-59
2023/02/13 11:59:41;;;;;;;12.77;7.97;;;;;;;15.62;44.10;98408.59;2067861;28;20233;-59
2023/02/13 12:00:42;;;;;;;11.70;7.55;;;;;;;14.50;45.12;98406.25;2067511;28;20214;-59
2023/02/13 12:01:48;;;;;;;13.18;7.57;;;;;;;13.83;47.35;98407.47;2067471;28;20282;-59
2023/02/13 12:02:49;;;;;;;13.13;7.82;;;;;;;13.70;46.97;98399.97;2063468;28;20881;-58
2023/02/13 12:04:16;;;;;;;16.52;8.90;;;;;;;13.54;47.30;98394.28;2064890;28;20245;-59
2023/02/13 12:05:21;;;;;;;14.90;8.90;;;;;;;14.09;46.58;98411.06;2068451;28;20256;-59
2023/02/13 12:06:22;;;;;;;13.23;8.35;;;;;;;13.33;47.67;98410.59;2066945;28;20202;-59
2023/02/13 12:07:29;;;;;;;13.90;7.80;;;;;;;13.39;48.95;98405.22;2066583;28;20732;-59
2023/02/13 12:08:33;;;;;;;14.43;8.68;;;;;;;14.67;47.22;98405.75;2067033;28;20698;-59
2023/02/13 12:09:37;;;;;;;13.90;7.97;;;;;;;15.97;44.12;98406.41;2066112;28;20233;-59
2023/02/13 12:10:39;;;;;;;12.93;8.05;;;;;;;14.48;45.26;98394.94;2065860;28;20203;-59
2023/02/13 12:11:50;;;;;;;13.73;8.70;;;;;;;13.16;48.10;98400.59;2066800;28;20710;-59
2023/02/13 12:12:58;;;;;;;13.18;8.45;;;;;;;13.72;48.09;98407.78;2068176;28;20641;-59
2023/02/13 12:13:59;;;;;;;17.40;8.38;;;;;;;14.74;46.32;98404.66;2068078;28;20233;-59
2023/02/13 12:15:09;;;;;;;13.88;7.57;;;;;;;15.27;44.75;98403.66;2067815;28;20410;-59
2023/02/13 12:16:30;;;;;;;12.25;7.15;;;;;;;14.78;44.96;98405.38;2067382;28;20633;-59
2023/02/13 12:17:33;;;;;;;12.05;8.15;;;;;;;15.47;44.48;98399.47;2063802;28;20210;-59
2023/02/13 12:18:46;;;;;;;14.18;8.32;;;;;;;15.79;44.20;98398.25;2063767;28;20222;-59
2023/02/13 12:19:49;;;;;;;17.38;8.65;;;;;;;17.06;43.03;98395.84;2065956;28;20233;-59
2023/02/13 12:21:00;;;;;;;15.68;8.35;;;;;;;15.76;44.11;98403.66;2065077;28;20435;-59
2023/02/13 12:22:01;;;;;;;29.02;9.43;;;;;;;15.36;44.59;98399.84;2068452;28;20198;-59
2023/02/13 12:23:21;;;;;;;14.68;8.55;;;;;;;16.46;43.12;98396.56;2067140;28;20222;-59
2023/02/13 12:24:41;;;;;;;18.02;8.23;;;;;;;16.83;41.50;98399.44;2067532;28;20204;-59
2023/02/13 12:26:06;;;;;;;18.25;7.97;;;;;;;16.63;42.42;98397.63;2067677;28;20241;-59
2023/02/13 12:27:22;;;;;;;18.98;7.50;;;;;;;16.83;42.43;98399.44;2067900;28;20210;-60
2023/02/13 12:29:02;;;;;;;16.80;8.48;;;;;;;14.63;44.65;98397.06;2066596;28;20604;-59
2023/02/13 12:30:25;;;;;;;15.15;8.07;;;;;;;16.15;43.16;98400.44;2067885;28;20221;-59
2023/02/13 12:31:32;;;;;;;16.05;8.55;;;;;;;15.75;43.43;98393.19;2068205;28;20610;-60
2023/02/13 12:32:57;;;;;;;12.57;8.00;;;;;;;15.62;43.62;98395.41;2066049;28;20681;-60
2023/02/13 12:34:22;;;;;;;15.32;8.65;;;;;;;14.90;45.12;98391.81;2067499;28;20217;-60
2023/02/13 12:35:44;;;;;;;15.73;8.05;;;;;;;14.96;45.35;98396.03;2067198;28;20206;-59
2023/02/13 12:37:15;;;;;;;13.98;7.80;;;;;;;15.80;44.09;98391.22;2066158;28;20653;-60
2023/02/13 12:38:34;;;;;;;17.00;8.20;;;;;;;14.71;45.43;98396.84;2065224;28;20233;-60
2023/02/13 12:39:59;;;;;;;14.45;7.72;;;;;;;13.75;47.00;98388.44;2065648;28;20716;-60
2023/02/13 12:41:33;;;;;;;16.00;8.98;;;;;;;14.76;45.43;98391.44;2066254;28;20206;-60
2023/02/13 12:43:03;;;;;;;12.90;8.15;;;;;;;14.04;46.97;98398.06;2067338;28;20655;-62
2023/02/13 12:44:29;;;;;;;12.68;7.88;;;;;;;14.60;45.98;98391.94;2061960;28;20218;-61
2023/02/13 12:45:45;;;;;;;13.82;7.97;;;;;;;15.12;44.99;98381.41;2065862;28;20452;-61
2023/02/13 12:46:55;;;;;;;13.30;8.48;;;;;;;14.32;46.23;98384.94;2066559;28;20198;-61
2023/02/13 12:48:24;;;;;;;15.43;8.48;;;;;;;14.47;45.72;98380.09;2063344;28;20198;-62
2023/02/13 12:49:42;;;;;;;16.23;8.27;;;;;;;14.27;46.43;98378.09;2066820;28;20201;-62
2023/02/13 12:51:12;;;;;;;16.40;7.75;;;;;;;14.79;45.73;98380.81;2070329;28;20225;-61
2023/02/13 12:52:23;;;;;;;15.25;8.00;;;;;;;14.09;47.13;98383.03;2067462;28;20301;-61
2023/02/13 12:53:52;;;;;;;13.02;7.85;;;;;;;13.88;47.35;98385.41;2067806;28;20260;-61
2023/02/13 12:55:17;;;;;;;14.73;7.60;;;;;;;14.55;46.32;98378.06;2068044;28;20714;-61
2023/02/13 12:56:49;;;;;;;14.43;8.68;;;;;;;14.29;46.94;98376.28;2063659;28;20863;-61
2023/02/13 12:58:18;;;;;;;19.40;8.80;;;;;;;14.27;46.79;98378.09;2065542;28;20231;-61
2023/02/13 12:59:47;;;;;;;14.45;8.95;;;;;;;14.05;47.52;98376.16;2066445;28;20194;-60
2023/02/13 13:01:14;;;;;;;14.77;8.45;;;;;;;14.19;46.91;98359.97;2065735;28;20207;-60
2023/02/13 13:02:42;;;;;;;15.40;8.65;;;;;;;15.06;45.59;98368.47;2063897;28;20638;-60
2023/02/13 13:04:19;;;;;;;16.27;8.05;;;;;;;14.94;45.34;98379.41;2066940;28;20238;-60
2023/02/13 13:05:50;;;;;;;15.10;8.30;;;;;;;15.86;44.75;98363.81;2064868;28;20207;-59
2023/02/13 13:07:29;;;;;;;11.38;7.13;;;;;;;14.55;46.11;98370.19;2067342;28;20198;-60
2023/02/13 13:09:02;;;;;;;16.17;8.38;;;;;;;14.26;46.52;98373.75;2065937;28;20225;-58
2023/02/13 13:10:22;;;;;;;18.25;9.05;;;;;;;14.12;47.18;98369.81;2066610;28;20197;-59
2023/02/13 13:11:45;;;;;;;20.70;9.60;;;;;;;14.84;45.68;98371.88;2067941;28;20198;-59
2023/02/13 13:13:17;;;;;;;14.20;7.72;;;;;;;15.23;45.48;98373.13;2066419;28;20194;-60
2023/02/13 13:14:40;;;;;;;14.43;7.75;;;;;;;16.52;44.11;98368.22;2066401;28;20201;-59
2023/02/13 13:15:50;;;;;;;18.25;7.60;;;;;;;17.99;41.83;98375.00;2067678;28;20212;-59
2023/02/13 13:17:08;;;;;;;13.80;7.93;;;;;;;17.90;41.07;98365.69;2067851;28;20237;-59
2023/02/13 13:18:30;;;;;;;14.45;7.90;;;;;;;18.03;40.60;98372.16;2066491;28;20248;-59
2023/02/13 13:19:44;;;;;;;15.20;7.15;;;;;;;17.22;41.24;98364.38;2066736;28;20289;-59
2023/02/13 13:21:10;;;;;;;19.55;8.32;;;;;;;18.18;41.20;98372.34;2066254;28;20201;-60
2023/02/13 13:22:19;;;;;;;21.77;8.68;;;;;;;18.86;40.20;98361.06;2067003;28;20285;-60
2023/02/13 13:23:30;;;;;;;17.33;8.10;;;;;;;19.15;39.44;98361.38;2068362;28;20225;-60
2023/02/13 13:24:40;;;;;;;17.83;8.35;;;;;;;18.85;39.32;98368.13;2068746;28;20206;-60
2023/02/13 13:26:00;;;;;;;19.92;9.05;;;;;;;18.82;39.51;98363.00;2068001;28;20202;-60
2023/02/13 13:27:07;;;;;;;13.70;8.40;;;;;;;18.27;40.24;98364.84;2067994;28;20233;-59
2023/02/13 13:28:20;;;;;;;13.65;8.00;;;;;;;18.65;39.69;98360.34;2068505;28;20229;-59
2023/02/13 13:29:34;;;;;;;19.70;7.88;;;;;;;18.83;39.09;98354.13;2069609;28;20202;-60
2023/02/13 13:30:37;;;;;;;21.90;8.30;;;;;;;16.42;41.56;98358.06;2068902;28;20200;-60
2023/02/13 13:31:39;;;;;;;20.52;7.80;;;;;;;15.63;43.44;98357.63;2067654;28;20206;-60
2023/02/13 13:32:44;;;;;;;15.43;8.40;;;;;;;14.67;45.90;98350.53;2064400;28;20238;-59
2023/02/13 13:33:46;;;;;;;19.40;9.05;;;;;;;15.27;45.00;98356.31;2066028;28;20633;-59
2023/02/13 13:34:48;;;;;;;17.45;7.70;;;;;;;17.37;42.56;98357.56;2067935;28;20199;-59
2023/02/13 13:36:30;;;;;;;16.13;7.57;;;;;;;17.13;42.12;98357.72;2066436;28;20525;-59
2023/02/13 13:37:39;;;;;;;22.88;8.23;;;;;;;17.66;41.59;98349.22;2069535;28;20194;-58
2023/02/13 13:38:50;;;;;;;19.00;8.48;;;;;;;16.38;42.16;98353.84;2067863;28;20241;-58
2023/02/13 13:40:04;;;;;;;14.40;8.45;;;;;;;16.25;42.92;98345.59;2067124;28;20509;-58
2023/02/13 13:41:34;;;;;;;19.70;8.55;;;;;;;15.81;43.57;98356.94;2067637;28;20195;-58
2023/02/13 13:43:06;;;;;;;18.63;7.72;;;;;;;14.75;45.78;98358.16;2068659;28;20202;-61
2023/02/13 13:44:39;;;;;;;13.18;8.43;;;;;;;15.95;44.75;98345.03;2066776;28;20233;-61
2023/02/13 13:45:54;;;;;;;15.93;8.25;;;;;;;15.97;43.48;98337.91;2068346;28;20202;-61
2023/02/13 13:47:01;;;;;;;12.38;7.78;;;;;;;16.62;43.17;98351.97;2068241;28;20194;-61
2023/02/13 13:48:31;;;;;;;18.48;7.40;;;;;;;17.68;41.61;98339.44;2066952;28;20221;-61
2023/02/13 13:49:51;;;;;;;19.23;8.25;;;;;;;16.38;42.32;98345.94;2067637;28;20222;-61
2023/02/13 13:50:55;;;;;;;13.57;8.10;;;;;;;17.46;41.84;98343.91;2067181;28;20198;-61
2023/02/13 13:52:21;;;;;;;14.10;8.05;;;;;;;18.18;40.67;98349.44;2070044;28;20198;-61
2023/02/13 13:53:24;;;;;;;14.75;7.75;;;;;;;18.73;39.99;98347.59;2067106;28;20218;-59
2023/02/13 13:54:33;;;;;;;33.45;8.13;;;;;;;18.54;40.03;98348.53;2067381;28;20195;-60
2023/02/13 13:55:47;;;;;;;12.18;7.07;;;;;;;17.78;40.66;98351.28;2067972;28;20206;-59
2023/02/13 13:57:00;;;;;;;12.43;7.60;;;;;;;18.42;40.11;98354.41;2068009;28;20209;-59
2023/02/13 13:58:03;;;;;;;14.02;8.52;;;;;;;17.83;39.95;98353.72;2067754;28;20237;-59
2023/02/13 13:59:16;;;;;;;13.63;8.18;;;;;;;17.95;40.05;98353.16;2064888;28;20570;-59
2023/02/13 14:00:28;;;;;;;22.85;9.40;;;;;;;16.14;42.71;98361.81;2068052;28;20237;-60
2023/02/13 14:01:30;;;;;;;20.30;7.95;;;;;;;16.59;42.50;98359.97;2066263;28;20289;-59
2023/02/13 14:02:50;;;;;;;18.35;8.18;;;;;;;14.29;46.33;98353.50;2067532;28;20209;-59
2023/02/13 14:04:01;;;;;;;18.48;9.52;;;;;;;15.16;46.24;98355.81;2067891;28;20226;-59
2023/02/13 14:05:26;;;;;;;14.82;8.07;;;;;;;17.05;43.25;98362.50;2065091;28;20241;-59
2023/02/13 14:06:47;;;;;;;14.50;7.53;;;;;;;17.63;41.94;98358.97;2067418;28;20190;-59
2023/02/13 14:07:56;;;;;;;12.40;8.00;;;;;;;17.82;41.17;98346.72;2067555;28;20201;-59